Rodrigues, Mauritius

8:53 PM MUT on September 03, 2015 (GMT +0400)
Plaine Corail | | Change Station
CLOSE
Current Station
Airport
Location: Rodrigues,
Elevation: 95 ft
Nearby Weather Stations

Elev 95 ft 19.76 °S, 63.36 °E | Updated 53 minutes ago

Mostly Cloudy
Mostly Cloudy
72 °F
Feels Like 72 °F
N
16
Wind Variable Wind from ESE

Today
High -- | Low -- °F
--% Chance of Precip.
Yesterday
High -- | Low -- °F
Precip. -- in
5:53 AM 5:38 PM
Waning Gibbous, 69% visible
Pressure 30.15 in
Visibility 6.2 miles
Clouds Mostly Cloudy 1800 ft
Dew Point 66 °F
Humidity 83%
Rainfall 0.00 in
Snow Depth Not available.
UV 0 out of 12
Pollen Not available.
Air Quality Not available.
Flu Activity Not available.
METAR FIMR 031600Z 12014KT 9999 BKN018 22/19 Q1021
Pressure 30.15 in
Visibility 6.2 miles
Clouds Mostly Cloudy 1800 ft
Dew Point 66 °F
Humidity 83%
Rainfall 0.00 in
Snow Depth Not available.
UV 0 out of 12
Pollen Not available.
Air Quality Not available.
Flu Activity Not available.
METAR FIMR 031600Z 12014KT 9999 BKN018 22/19 Q1021

10-Day Weather Forecast

×

Almanac

Astronomy

Sep. 03, 2015 Rise Set
Actual Time
Civil Twilight
Nautical Twilight
Astronomical Twilight
Moon
Length of Visible Light
Length of Day
Tomorrow will be .
, % of the Moon is Illuminated

Today's Extremes

Country Highs Country Lows

Community

WunderPhotos

Upload Photos

1,851,988 photos uploaded!

WunderBlogs® & News

Nearby

Air Quality

  Air Quality AQ Index Pollutant
Not available.

Snow Depth

Station Depth Elevation

Earthquake Activity

City Distance Mag. Time & Date
Minimum magnitude displayed is 2.5.

Coastal Water Temperatures

Place Temperature

Stations

Nearby Weather Stations

Station Location Temp. Windchill Dew Point Humidity Wind Precip. Elev Updated Type